createdAt,value
2018-12-02T00:00:49.656Z,9.80
2018-12-02T00:03:18.527Z,9.80
2018-12-02T00:05:47.498Z,9.80
2018-12-02T00:08:16.576Z,9.80
2018-12-02T00:10:45.501Z,9.80
2018-12-02T00:13:14.216Z,9.70
2018-12-02T00:15:43.141Z,9.70
2018-12-02T00:18:13.902Z,9.80
2018-12-02T00:20:43.070Z,9.80
2018-12-02T00:23:11.930Z,9.70
2018-12-02T00:25:40.841Z,9.70
2018-12-02T00:28:11.094Z,9.70
2018-12-02T00:30:40.503Z,9.70
2018-12-02T00:33:09.437Z,9.80
2018-12-02T00:35:38.192Z,9.80
2018-12-02T00:38:08.858Z,9.80
2018-12-02T00:40:37.775Z,9.80
2018-12-02T00:43:08.143Z,9.80
2018-12-02T00:45:38.262Z,9.90
2018-12-02T00:48:08.263Z,9.90
2018-12-02T00:50:37.613Z,9.90
2018-12-02T00:53:07.749Z,9.90
2018-12-02T00:55:40.009Z,9.90
2018-12-02T00:58:08.797Z,9.90
2018-12-02T01:00:37.595Z,9.90
2018-12-02T01:03:08.002Z,9.90
2018-12-02T01:05:37.337Z,9.90
2018-12-02T01:08:07.604Z,10.00
2018-12-02T01:10:37.022Z,10.00
2018-12-02T01:13:09.633Z,9.90
2018-12-02T01:15:39.781Z,9.90
2018-12-02T01:18:08.891Z,9.80
2018-12-02T01:20:38.676Z,9.80
2018-12-02T01:23:07.770Z,9.80
2018-12-02T01:25:37.273Z,9.80
2018-12-02T01:28:06.750Z,9.80
2018-12-02T01:30:35.719Z,9.80
2018-12-02T01:33:04.447Z,9.80
2018-12-02T01:35:33.100Z,9.90
2018-12-02T01:38:02.028Z,9.90
2018-12-02T01:40:31.011Z,9.90
2018-12-02T01:42:59.879Z,9.90
2018-12-02T01:45:28.561Z,9.90
2018-12-02T01:47:57.343Z,9.80
2018-12-02T01:50:26.812Z,9.90
2018-12-02T01:52:57.269Z,9.90
2018-12-02T01:55:25.989Z,9.90
2018-12-02T01:57:54.724Z,9.90
2018-12-02T02:00:24.835Z,9.90
2018-12-02T02:02:54.230Z,9.90
2018-12-02T02:05:23.730Z,10.00
2018-12-02T02:07:52.427Z,9.90
2018-12-02T02:10:27.670Z,10.00
2018-12-02T02:12:56.477Z,10.00
2018-12-02T02:15:25.350Z,10.00
2018-12-02T02:17:54.079Z,10.00
2018-12-02T02:20:24.648Z,9.90
2018-12-02T02:22:53.385Z,10.00
2018-12-02T02:25:24.041Z,10.00
2018-12-02T02:27:58.833Z,10.00
2018-12-02T02:30:28.581Z,10.00
2018-12-02T02:32:57.304Z,10.00
2018-12-02T02:35:25.987Z,10.10
2018-12-02T02:37:56.696Z,10.10
2018-12-02T02:40:27.578Z,10.10
2018-12-02T02:42:56.294Z,10.10
2018-12-02T02:45:25.036Z,10.10
2018-12-02T02:47:53.692Z,10.10
2018-12-02T02:50:26.152Z,10.10
2018-12-02T02:52:57.843Z,10.20
2018-12-02T02:55:26.606Z,10.10
2018-12-02T02:57:55.381Z,10.20
2018-12-02T03:00:25.286Z,10.20
2018-12-02T03:02:54.045Z,10.10
2018-12-02T03:05:22.733Z,10.20
2018-12-02T03:07:51.471Z,10.20
2018-12-02T03:10:21.115Z,10.20
2018-12-02T03:12:53.727Z,10.20
2018-12-02T03:15:23.072Z,10.20
2018-12-02T03:17:51.752Z,10.20
2018-12-02T03:20:21.304Z,10.20
2018-12-02T03:22:53.785Z,10.20
2018-12-02T03:25:24.473Z,10.20
2018-12-02T03:27:53.206Z,10.20
2018-12-02T03:30:23.502Z,10.20
2018-12-02T03:32:52.346Z,10.20
2018-12-02T03:35:22.910Z,10.20
2018-12-02T03:37:52.006Z,10.30
2018-12-02T03:40:22.615Z,10.20
2018-12-02T03:42:51.890Z,10.30
2018-12-02T03:45:22.491Z,10.30
2018-12-02T03:47:51.165Z,10.30
2018-12-02T03:50:21.635Z,10.30
2018-12-02T03:52:50.337Z,10.30
2018-12-02T03:55:19.030Z,10.30
2018-12-02T03:57:48.268Z,10.20
2018-12-02T04:00:20.673Z,10.20
2018-12-02T04:02:49.717Z,10.30
2018-12-02T04:05:19.474Z,10.30
2018-12-02T04:07:48.217Z,10.30
2018-12-02T04:10:17.816Z,10.30
2018-12-02T04:12:47.644Z,10.30
2018-12-02T04:15:17.279Z,10.30
2018-12-02T04:17:46.504Z,10.30
2018-12-02T04:20:17.271Z,10.30
2018-12-02T04:22:46.972Z,10.30
2018-12-02T04:25:19.977Z,10.30
2018-12-02T04:27:48.630Z,10.40
2018-12-02T04:30:18.207Z,10.30
2018-12-02T04:32:47.789Z,10.40
2018-12-02T04:35:20.291Z,10.30
2018-12-02T04:37:48.936Z,10.40
2018-12-02T04:40:17.648Z,10.40
2018-12-02T04:42:46.303Z,10.40
2018-12-02T04:45:16.908Z,10.40
2018-12-02T04:47:45.747Z,10.40
2018-12-02T04:50:18.683Z,10.30
2018-12-02T04:52:47.403Z,10.30
2018-12-02T04:55:16.118Z,10.40
2018-12-02T04:57:44.768Z,10.40
2018-12-02T05:00:18.138Z,10.40
2018-12-02T05:02:47.879Z,10.40
2018-12-02T05:05:18.832Z,10.40
2018-12-02T05:07:47.441Z,10.40
2018-12-02T05:10:17.142Z,10.40
2018-12-02T05:12:45.917Z,10.40
2018-12-02T05:15:15.920Z,10.40
2018-12-02T05:17:44.606Z,10.40
2018-12-02T05:20:15.908Z,10.40
2018-12-02T05:22:44.625Z,10.40
2018-12-02T05:25:17.378Z,10.40
2018-12-02T05:27:42.994Z,10.40
2018-12-02T05:30:15.615Z,10.40
2018-12-02T05:32:45.089Z,10.40
2018-12-02T05:35:14.278Z,10.30
2018-12-02T05:37:42.934Z,10.30
2018-12-02T05:40:17.726Z,10.40
2018-12-02T05:42:46.405Z,10.40
2018-12-02T05:45:16.876Z,10.40
2018-12-02T05:47:45.652Z,10.40
2018-12-02T05:50:21.117Z,10.30
2018-12-02T05:52:51.049Z,10.40
2018-12-02T05:55:21.148Z,10.40
2018-12-02T05:57:49.813Z,10.40
2018-12-02T06:00:19.876Z,10.40
2018-12-02T06:02:48.560Z,10.50
2018-12-02T06:05:17.253Z,10.50
2018-12-02T06:07:45.974Z,10.50
2018-12-02T06:10:17.679Z,10.50
2018-12-02T06:12:46.494Z,10.50
2018-12-02T06:15:18.846Z,10.50
2018-12-02T06:17:47.636Z,10.50
2018-12-02T06:20:18.534Z,10.50
2018-12-02T06:22:47.565Z,10.50
2018-12-02T06:25:16.239Z,10.50
2018-12-02T06:27:45.039Z,10.60
2018-12-02T06:30:19.961Z,10.60
2018-12-02T06:32:49.948Z,10.60
2018-12-02T06:35:18.628Z,10.60
2018-12-02T06:37:47.325Z,10.60
2018-12-02T06:40:18.386Z,10.60
2018-12-02T06:42:47.161Z,10.60
2018-12-02T06:45:15.879Z,10.60
2018-12-02T06:47:44.544Z,10.60
2018-12-02T06:50:18.179Z,10.70
2018-12-02T06:52:46.879Z,10.70
2018-12-02T06:55:26.219Z,10.70
2018-12-02T06:58:09.134Z,10.70
2018-12-02T07:00:50.857Z,10.70
2018-12-02T07:03:30.081Z,10.70
2018-12-02T07:05:58.815Z,10.70
2018-12-02T07:08:27.507Z,10.70
2018-12-02T07:10:56.185Z,10.70
2018-12-02T07:13:24.871Z,10.80
2018-12-02T07:15:53.544Z,10.80
2018-12-02T07:18:27.506Z,10.80
2018-12-02T07:20:58.463Z,10.80
2018-12-02T07:23:30.803Z,10.80
2018-12-02T07:26:04.432Z,10.80
2018-12-02T07:28:33.071Z,10.80
2018-12-02T07:31:01.762Z,10.80
2018-12-02T07:33:30.503Z,10.80
2018-12-02T07:35:59.153Z,10.90
2018-12-02T07:38:37.555Z,10.80
2018-12-02T07:41:07.878Z,10.80
2018-12-02T07:43:36.532Z,10.80
2018-12-02T07:46:05.405Z,10.80
2018-12-02T07:48:35.025Z,10.90
2018-12-02T07:51:03.779Z,10.80
2018-12-02T07:53:32.464Z,10.90
2018-12-02T07:56:01.126Z,10.90
2018-12-02T07:58:29.807Z,10.90
2018-12-02T08:00:58.449Z,11.00
2018-12-02T08:03:27.178Z,11.00
2018-12-02T08:05:55.798Z,11.00
2018-12-02T08:08:24.526Z,11.00
2018-12-02T08:10:53.202Z,11.00
2018-12-02T08:13:21.939Z,11.00
2018-12-02T08:15:50.644Z,11.00
2018-12-02T08:18:19.296Z,11.00
2018-12-02T08:20:47.980Z,11.00
2018-12-02T08:23:16.610Z,11.00
2018-12-02T08:25:45.314Z,11.00
2018-12-02T08:28:15.770Z,11.00
2018-12-02T08:30:44.496Z,11.00
2018-12-02T08:33:13.215Z,11.00
2018-12-02T08:35:41.928Z,11.00
2018-12-02T08:38:11.648Z,11.00
2018-12-02T08:40:40.350Z,11.00
2018-12-02T08:43:09.549Z,11.00
2018-12-02T08:45:38.440Z,11.00
2018-12-02T08:48:07.160Z,11.00
2018-12-02T08:50:35.800Z,11.00
2018-12-02T08:53:04.528Z,11.00
2018-12-02T08:55:33.335Z,11.00
2018-12-02T08:58:02.102Z,11.00
2018-12-02T09:00:30.845Z,11.00
2018-12-02T09:03:04.247Z,11.10
2018-12-02T09:05:32.977Z,11.10
2018-12-02T09:08:02.020Z,11.10
2018-12-02T09:10:31.891Z,11.20
2018-12-02T09:13:03.753Z,11.20
2018-12-02T09:15:32.472Z,11.20
2018-12-02T09:18:01.190Z,11.20
2018-12-02T09:20:32.385Z,11.20
2018-12-02T09:23:01.106Z,11.10
2018-12-02T09:25:29.929Z,11.10
2018-12-02T09:27:58.636Z,11.20
2018-12-02T09:30:28.379Z,11.20
2018-12-02T09:32:57.147Z,11.20
2018-12-02T09:35:25.944Z,11.20
2018-12-02T09:37:54.774Z,11.20
2018-12-02T09:40:23.581Z,11.20
2018-12-02T09:42:53.551Z,11.20
2018-12-02T09:45:24.725Z,11.30
2018-12-02T09:47:54.274Z,11.30
2018-12-02T09:50:29.777Z,11.30
2018-12-02T09:52:58.490Z,11.20
2018-12-02T09:55:30.694Z,11.20
2018-12-02T09:57:59.583Z,11.20
2018-12-02T10:00:33.967Z,11.20
2018-12-02T10:02:57.151Z,11.20
2018-12-02T10:05:25.861Z,11.20
2018-12-02T10:07:54.794Z,11.30
2018-12-02T10:10:23.906Z,11.30
2018-12-02T10:13:00.252Z,11.30
2018-12-02T10:15:29.020Z,11.30
2018-12-02T10:17:57.844Z,11.30
2018-12-02T10:20:26.926Z,11.30
2018-12-02T10:22:55.669Z,11.30
2018-12-02T10:25:24.531Z,11.30
2018-12-02T10:27:53.286Z,11.40
2018-12-02T10:30:23.054Z,11.40
2018-12-02T10:32:52.740Z,11.40
2018-12-02T10:35:21.677Z,11.40
2018-12-02T10:37:50.851Z,11.40
2018-12-02T10:40:20.563Z,11.40
2018-12-02T10:42:49.336Z,11.30
2018-12-02T10:45:20.251Z,11.30
2018-12-02T10:47:49.636Z,11.30
2018-12-02T10:50:20.475Z,11.40
2018-12-02T10:52:49.936Z,11.40
2018-12-02T10:55:39.561Z,11.40
2018-12-02T10:58:10.521Z,11.40
2018-12-02T11:00:44.459Z,11.40
2018-12-02T11:03:13.281Z,11.50
2018-12-02T11:05:42.156Z,11.50
2018-12-02T11:08:10.897Z,11.60
2018-12-02T11:10:39.670Z,11.60
2018-12-02T11:13:08.536Z,11.70
2018-12-02T11:15:37.461Z,11.80
2018-12-02T11:18:07.969Z,11.80
2018-12-02T11:20:36.794Z,11.80
2018-12-02T11:23:06.317Z,11.80
2018-12-02T11:25:35.328Z,11.80
2018-12-02T11:28:04.504Z,11.80
2018-12-02T11:30:33.270Z,11.90
2018-12-02T11:33:02.082Z,11.90
2018-12-02T11:35:30.816Z,11.90
2018-12-02T11:37:59.578Z,11.90
2018-12-02T11:40:28.332Z,11.90
2018-12-02T11:42:57.083Z,11.90
2018-12-02T11:45:25.835Z,12.00
2018-12-02T11:47:55.248Z,12.00
2018-12-02T11:50:25.325Z,12.00
2018-12-02T11:52:54.122Z,12.00
2018-12-02T11:55:23.220Z,12.00
2018-12-02T11:57:52.027Z,12.10
2018-12-02T12:00:31.691Z,12.00
2018-12-02T12:03:00.676Z,12.10
2018-12-02T12:05:29.414Z,12.10
2018-12-02T12:07:58.106Z,12.10
2018-12-02T12:10:28.639Z,12.10
2018-12-02T12:13:01.285Z,12.10
2018-12-02T12:15:30.884Z,12.10
2018-12-02T12:18:00.339Z,12.10
2018-12-02T12:20:30.336Z,12.10
2018-12-02T12:22:59.129Z,12.10
2018-12-02T12:25:28.124Z,12.20
2018-12-02T12:27:57.607Z,12.20
2018-12-02T12:30:28.612Z,12.20
2018-12-02T12:32:57.478Z,12.20
2018-12-02T12:35:26.436Z,12.20
2018-12-02T12:37:55.263Z,12.20
2018-12-02T12:40:29.854Z,12.20
2018-12-02T12:43:32.741Z,12.30
2018-12-02T12:46:02.454Z,12.30
2018-12-02T12:48:37.703Z,12.30
2018-12-02T12:51:06.444Z,12.30
2018-12-02T12:53:35.152Z,12.30
2018-12-02T12:56:04.085Z,12.30
2018-12-02T12:58:32.834Z,12.30
2018-12-02T13:01:01.801Z,12.30
2018-12-02T13:03:30.581Z,12.30
2018-12-02T13:05:59.316Z,12.40
2018-12-02T13:08:28.067Z,12.40
2018-12-02T13:10:56.802Z,12.50
2018-12-02T13:13:25.659Z,12.50
2018-12-02T13:15:54.411Z,12.50
2018-12-02T13:18:23.152Z,12.50
2018-12-02T13:20:53.282Z,12.50
2018-12-02T13:23:22.333Z,12.60
2018-12-02T13:25:51.288Z,12.60
2018-12-02T13:28:20.718Z,12.70
2018-12-02T13:30:49.525Z,12.70
2018-12-02T13:33:18.310Z,12.80
2018-12-02T13:35:47.103Z,12.80
2018-12-02T13:38:15.903Z,12.70
2018-12-02T13:40:44.943Z,12.70
2018-12-02T13:43:19.303Z,12.70
2018-12-02T13:45:48.734Z,12.70
2018-12-02T13:48:17.523Z,12.60
2018-12-02T13:50:46.315Z,12.70
2018-12-02T13:53:15.192Z,12.70
2018-12-02T13:55:44.087Z,12.70
2018-12-02T13:58:12.919Z,12.70
2018-12-02T14:00:42.631Z,12.70
2018-12-02T14:03:13.367Z,12.80
2018-12-02T14:05:45.939Z,12.80
2018-12-02T14:08:14.818Z,12.90
2018-12-02T14:10:44.136Z,12.90
2018-12-02T14:13:18.401Z,13.00
2018-12-02T14:16:27.461Z,13.00
2018-12-02T14:18:57.783Z,12.90
2018-12-02T14:21:37.860Z,12.90
2018-12-02T14:24:09.007Z,12.90
2018-12-02T14:26:39.709Z,12.90
2018-12-02T14:29:30.165Z,12.90
2018-12-02T14:32:15.106Z,12.90
2018-12-02T14:42:13.964Z,12.90
2018-12-02T14:44:42.869Z,12.90
2018-12-02T14:47:11.723Z,12.90
2018-12-02T14:49:40.574Z,12.80
2018-12-02T14:52:09.494Z,12.80
2018-12-02T14:54:38.295Z,12.80
2018-12-02T14:57:12.835Z,12.80
2018-12-02T14:59:59.241Z,12.80
2018-12-02T15:02:40.942Z,12.80
2018-12-02T15:05:23.600Z,12.80
2018-12-02T15:07:52.835Z,12.80
2018-12-02T15:10:22.145Z,12.80
2018-12-02T15:13:01.813Z,12.70
2018-12-02T15:15:40.700Z,12.70
2018-12-02T15:18:15.536Z,12.70
2018-12-02T15:20:50.858Z,12.60
2018-12-02T15:23:30.474Z,12.60
2018-12-02T15:26:12.611Z,12.60
2018-12-02T15:28:41.987Z,12.60
2018-12-02T15:31:33.446Z,12.60
2018-12-02T15:34:22.687Z,12.60
2018-12-02T15:37:03.368Z,12.60
2018-12-02T15:39:46.175Z,12.60
2018-12-02T15:42:31.610Z,12.60
2018-12-02T15:45:01.128Z,12.60
2018-12-02T15:47:30.042Z,12.60
2018-12-02T15:50:12.973Z,12.60
2018-12-02T15:52:54.944Z,12.60
2018-12-02T15:55:46.358Z,12.60
2018-12-02T15:58:42.365Z,12.60
2018-12-02T16:01:44.765Z,12.60
2018-12-02T16:04:14.335Z,12.60
2018-12-02T16:06:43.157Z,12.50
2018-12-02T16:09:21.441Z,12.50
2018-12-02T16:12:02.040Z,12.50
2018-12-02T16:14:30.881Z,12.50
2018-12-02T16:17:00.499Z,12.40
2018-12-02T16:19:29.366Z,12.40
2018-12-02T16:21:58.252Z,12.50
2018-12-02T16:24:37.852Z,12.50
2018-12-02T16:27:16.363Z,12.50
2018-12-02T16:29:45.489Z,12.40
2018-12-02T16:32:21.114Z,12.50
2018-12-02T16:35:36.778Z,12.50
2018-12-02T16:38:07.328Z,12.50
2018-12-02T16:40:36.736Z,12.50
2018-12-02T16:43:06.274Z,12.50
2018-12-02T16:46:33.465Z,12.50
2018-12-02T16:56:50.378Z,12.50
2018-12-02T16:59:31.299Z,12.50
2018-12-02T17:02:05.149Z,12.50
2018-12-02T17:04:32.058Z,12.50
2018-12-02T17:07:02.160Z,12.50
2018-12-02T17:09:32.062Z,12.50
2018-12-02T17:12:01.383Z,12.50
2018-12-02T17:14:30.537Z,12.50
2018-12-02T17:16:59.969Z,12.50
2018-12-02T17:19:29.702Z,12.50
2018-12-02T17:21:58.511Z,12.50
2018-12-02T17:24:27.435Z,12.50
2018-12-02T17:26:56.439Z,12.50
2018-12-02T17:29:28.442Z,12.50
2018-12-02T17:32:00.732Z,12.50
2018-12-02T17:34:30.294Z,12.50
2018-12-02T17:37:01.112Z,12.50
2018-12-02T17:39:32.228Z,12.60
2018-12-02T17:42:07.953Z,12.60
2018-12-02T17:44:37.233Z,12.50
2018-12-02T17:47:08.297Z,12.60
2018-12-02T17:49:41.241Z,12.60
2018-12-02T17:52:11.739Z,12.60
2018-12-02T17:54:41.006Z,12.60
2018-12-02T17:57:10.744Z,12.60
2018-12-02T17:59:40.232Z,12.60
2018-12-02T18:02:11.635Z,12.60
2018-12-02T18:04:40.748Z,12.60
2018-12-02T18:07:09.563Z,12.60
2018-12-02T18:09:38.689Z,12.60
2018-12-02T18:12:08.413Z,12.60
2018-12-02T18:14:37.782Z,12.50
2018-12-02T18:17:06.685Z,12.50
2018-12-02T18:19:35.531Z,12.50
2018-12-02T18:22:04.428Z,12.50
2018-12-02T18:24:33.534Z,12.50
2018-12-02T18:27:02.611Z,12.50
2018-12-02T18:29:31.568Z,12.50
2018-12-02T18:32:00.418Z,12.40
2018-12-02T18:34:31.132Z,12.50
2018-12-02T18:37:00.289Z,12.50
2018-12-02T18:39:31.111Z,12.50
2018-12-02T18:42:00.360Z,12.50
2018-12-02T18:44:29.923Z,12.50
2018-12-02T18:47:00.559Z,12.60
2018-12-02T18:49:29.867Z,12.60
2018-12-02T18:51:59.384Z,12.60
2018-12-02T18:54:28.944Z,12.60
2018-12-02T18:56:59.383Z,12.60
2018-12-02T18:59:29.619Z,12.60
2018-12-02T19:01:59.819Z,12.60
2018-12-02T19:04:29.150Z,12.60
2018-12-02T19:07:00.132Z,12.60
2018-12-02T19:09:29.063Z,12.70
2018-12-02T19:11:59.354Z,12.70
2018-12-02T19:14:28.992Z,12.70
2018-12-02T19:16:59.924Z,12.60
2018-12-02T19:19:29.275Z,12.60
2018-12-02T19:21:58.624Z,12.50
2018-12-02T19:24:32.243Z,12.50
2018-12-02T19:27:01.536Z,12.60
2018-12-02T19:29:32.104Z,12.60
2018-12-02T19:32:01.324Z,12.70
2018-12-02T19:34:34.996Z,12.70
2018-12-02T19:37:06.385Z,12.70
2018-12-02T19:39:36.730Z,12.70
2018-12-02T19:42:06.019Z,12.80
2018-12-02T19:44:34.934Z,12.80
2018-12-02T19:47:03.826Z,12.70
2018-12-02T19:49:32.763Z,12.70
2018-12-02T19:52:01.611Z,12.70
2018-12-02T19:54:30.458Z,12.70
2018-12-02T19:56:59.589Z,12.60
2018-12-02T19:59:28.649Z,12.60
2018-12-02T20:02:01.727Z,12.60
2018-12-02T20:04:39.287Z,12.60
2018-12-02T20:07:16.128Z,12.50
2018-12-02T20:09:46.046Z,12.60
2018-12-02T20:12:15.298Z,12.60
2018-12-02T20:14:46.676Z,12.50
2018-12-02T20:17:16.021Z,12.50
2018-12-02T20:19:50.606Z,12.50
2018-12-02T20:22:21.305Z,12.60
2018-12-02T20:24:50.375Z,12.60
2018-12-02T20:27:19.958Z,12.60
2018-12-02T20:29:49.298Z,12.50
2018-12-02T20:32:18.999Z,12.50
2018-12-02T20:34:48.913Z,12.50
2018-12-02T20:37:18.484Z,12.50
2018-12-02T20:39:49.158Z,12.50
2018-12-02T20:42:18.502Z,12.50
2018-12-02T20:44:52.692Z,12.50
2018-12-02T20:47:17.391Z,12.50
2018-12-02T20:49:46.686Z,12.50
2018-12-02T20:52:15.574Z,12.50
2018-12-02T20:54:44.544Z,12.50
2018-12-02T20:57:13.967Z,12.50
2018-12-02T20:59:43.557Z,12.60
2018-12-02T21:02:12.958Z,12.60
2018-12-02T21:04:43.473Z,12.50
2018-12-02T21:07:17.639Z,12.60
2018-12-02T21:09:48.684Z,12.60
2018-12-02T21:12:17.811Z,12.60
2018-12-02T21:14:46.920Z,12.60
2018-12-02T21:17:16.719Z,12.60
2018-12-02T21:19:45.649Z,12.60
2018-12-02T21:22:16.025Z,12.60
2018-12-02T21:24:45.456Z,12.60
2018-12-02T21:27:14.494Z,12.60
2018-12-02T21:29:43.444Z,12.60
2018-12-02T21:32:12.528Z,12.70
2018-12-02T21:34:41.264Z,12.70
2018-12-02T21:37:10.176Z,12.70
2018-12-02T21:39:39.138Z,12.70
2018-12-02T21:42:08.040Z,12.70
2018-12-02T21:44:37.274Z,12.70
2018-12-02T21:47:06.135Z,12.70
2018-12-02T21:49:35.190Z,12.70
2018-12-02T21:52:04.200Z,12.70
2018-12-02T21:54:32.951Z,12.80
2018-12-02T21:57:01.842Z,12.80
2018-12-02T21:59:30.900Z,12.80
2018-12-02T22:01:59.754Z,12.80
2018-12-02T22:04:28.608Z,12.80
2018-12-02T22:06:57.614Z,12.80
2018-12-02T22:09:26.543Z,12.80
2018-12-02T22:11:55.930Z,12.80
2018-12-02T22:14:25.041Z,12.90
2018-12-02T22:16:53.814Z,12.90
2018-12-02T22:19:22.531Z,12.90
2018-12-02T22:21:51.255Z,12.90
2018-12-02T22:24:19.991Z,12.90
2018-12-02T22:26:48.818Z,12.90
2018-12-02T22:29:17.575Z,12.90
2018-12-02T22:31:46.284Z,12.90
2018-12-02T22:34:15.061Z,12.90
2018-12-02T22:36:43.832Z,12.90
2018-12-02T22:39:12.614Z,12.90
2018-12-02T22:41:41.372Z,12.90
2018-12-02T22:44:10.073Z,12.90
2018-12-02T22:46:38.776Z,12.90
2018-12-02T22:49:07.588Z,12.90
2018-12-02T22:51:36.260Z,12.90
2018-12-02T22:54:05.167Z,12.90
2018-12-02T22:56:34.131Z,12.90
2018-12-02T22:59:02.865Z,12.90
2018-12-02T23:01:36.761Z,12.90
2018-12-02T23:04:07.697Z,12.90
2018-12-02T23:06:36.401Z,12.90
2018-12-02T23:09:07.869Z,12.90
2018-12-02T23:11:36.733Z,12.90
2018-12-02T23:14:05.516Z,12.90
2018-12-02T23:16:34.367Z,12.90
2018-12-02T23:19:03.213Z,12.80
2018-12-02T23:21:31.872Z,12.90
2018-12-02T23:24:00.623Z,12.90
2018-12-02T23:26:29.417Z,12.90
2018-12-02T23:28:58.188Z,12.90
2018-12-02T23:31:26.941Z,12.90
2018-12-02T23:33:55.741Z,12.90
2018-12-02T23:36:24.508Z,12.90
2018-12-02T23:38:53.273Z,12.90
2018-12-02T23:41:21.993Z,13.00
2018-12-02T23:43:50.779Z,13.00
2018-12-02T23:46:19.498Z,13.00
2018-12-02T23:48:48.483Z,13.00
2018-12-02T23:51:17.228Z,13.00
2018-12-02T23:53:45.999Z,13.00
2018-12-02T23:56:14.805Z,13.00
2018-12-02T23:58:43.576Z,13.00
